Time;durP1;ratioP1;P1;durP2;ratioP2;P2;SDS_P1;SDS_P2;PMS_P1;PMS_P2;Temp;Humidity;BMP_temperature;BMP_pressure;BME280_temperature;BME280_humidity;BME280_pressure;Samples;Min_cycle;Max_cycle;Signal;HPM_P1;HPM_P2
2021/04/23 00:00:52;;;;;;;5.38;1.83;;;;;;;24.37;15.68;98513.84;5037983;28;20098;-84
2021/04/23 00:03:23;;;;;;;8.25;1.90;;;;;;;24.00;16.12;98521.22;5029730;28;20033;-84
2021/04/23 00:05:52;;;;;;;4.60;1.98;;;;;;;24.08;15.84;98518.31;5042618;28;20540;-84
2021/04/23 00:08:20;;;;;;;7.63;1.75;;;;;;;24.29;15.81;98518.00;5040222;28;20037;-84
2021/04/23 00:10:47;;;;;;;7.65;2.10;;;;;;;24.47;15.56;98510.88;5047184;28;20064;-84
2021/04/23 00:13:13;;;;;;;4.50;1.38;;;;;;;24.78;15.20;98511.59;5039735;28;20376;-84
2021/04/23 00:15:40;;;;;;;8.27;2.25;;;;;;;25.13;14.82;98515.75;5033323;28;20403;-84
2021/04/23 00:18:07;;;;;;;4.40;1.92;;;;;;;25.38;14.99;98514.03;5053731;28;20609;-85
2021/04/23 00:20:33;;;;;;;6.38;2.05;;;;;;;25.54;14.77;98507.69;5033439;28;20025;-85
2021/04/23 00:23:04;;;;;;;7.88;1.90;;;;;;;25.76;14.77;98514.47;5036036;28;20041;-85
2021/04/23 00:25:31;;;;;;;7.35;1.80;;;;;;;25.79;14.93;98505.13;5037480;28;20037;-85
2021/04/23 00:28:01;;;;;;;6.50;2.30;;;;;;;25.80;14.58;98501.09;5042852;28;20025;-84
2021/04/23 00:30:31;;;;;;;3.88;1.58;;;;;;;25.71;14.77;98505.75;5052630;28;20033;-84
2021/04/23 00:32:57;;;;;;;4.57;1.93;;;;;;;25.67;14.63;98505.03;5045077;28;20402;-84
2021/04/23 00:35:30;;;;;;;7.07;2.40;;;;;;;25.37;15.14;98506.81;5057022;28;20348;-84
2021/04/23 00:37:59;;;;;;;4.90;2.28;;;;;;;24.94;15.19;98500.44;5040075;28;20045;-85
2021/04/23 00:40:34;;;;;;;5.18;2.00;;;;;;;24.73;15.16;98504.41;5040500;28;20376;-85
2021/04/23 00:43:01;;;;;;;5.00;2.15;;;;;;;24.88;15.01;98502.16;5045733;28;20136;-85
2021/04/23 00:45:30;;;;;;;5.60;2.03;;;;;;;25.01;14.88;98496.72;5042661;28;20067;-85
2021/04/23 00:47:59;;;;;;;5.53;2.10;;;;;;;24.95;15.18;98498.44;5052053;28;20029;-85
2021/04/23 00:50:44;;;;;;;8.55;2.53;;;;;;;24.64;15.55;98514.59;5036690;28;20487;-85
2021/04/23 00:53:16;;;;;;;7.65;2.10;;;;;;;24.43;15.65;98498.94;5039870;28;20026;-85
2021/04/23 00:55:43;;;;;;;5.22;1.77;;;;;;;24.34;15.82;98504.25;5044113;28;20040;-85
2021/04/23 00:58:16;;;;;;;8.40;2.38;;;;;;;24.17;15.76;98504.56;5036641;28;20052;-85
2021/04/23 01:00:47;;;;;;;8.10;2.20;;;;;;;24.24;15.54;98507.25;5052403;28;20041;-85
2021/04/23 01:03:15;;;;;;;9.02;2.47;;;;;;;24.36;15.64;98501.06;5039933;28;20030;-85
2021/04/23 01:05:42;;;;;;;7.00;2.53;;;;;;;24.44;15.43;98510.94;5037015;28;20103;-84
2021/04/23 01:08:09;;;;;;;4.38;1.88;;;;;;;24.34;15.53;98503.50;5040683;28;20421;-85
2021/04/23 01:10:36;;;;;;;3.67;1.80;;;;;;;24.20;15.54;98514.94;5042519;28;20095;-85
2021/04/23 01:13:04;;;;;;;6.72;2.35;;;;;;;24.36;15.16;98504.66;5046475;28;20378;-85
2021/04/23 01:15:30;;;;;;;5.20;1.88;;;;;;;24.27;15.53;98506.41;5044013;28;20030;-85
2021/04/23 01:17:56;;;;;;;10.45;2.75;;;;;;;24.11;15.44;98518.25;5050904;28;20064;-85
2021/04/23 01:20:23;;;;;;;4.45;2.10;;;;;;;24.08;15.54;98519.13;5047787;28;20036;-85
2021/04/23 01:22:50;;;;;;;8.95;2.75;;;;;;;23.92;15.85;98527.34;5049090;28;20030;-84
2021/04/23 01:25:18;;;;;;;7.80;2.65;;;;;;;22.78;16.94;98524.25;5045496;28;20043;-85
2021/04/23 01:27:44;;;;;;;7.22;2.83;;;;;;;22.59;17.25;98524.81;5050130;28;20115;-84
2021/04/23 01:30:16;;;;;;;6.45;2.40;;;;;;;22.96;16.90;98532.50;5039638;28;20043;-84
2021/04/23 01:32:43;;;;;;;5.68;2.47;;;;;;;22.85;16.88;98529.78;5036558;28;20504;-85
2021/04/23 01:35:13;;;;;;;5.30;2.38;;;;;;;22.52;17.56;98525.66;5044582;28;20524;-84
2021/04/23 01:37:40;;;;;;;;;;;;;;;22.45;17.61;98528.53;5037266;28;20045;-84
2021/04/23 01:40:09;;;;;;;10.38;2.50;;;;;;;22.27;17.73;98527.88;5036576;28;19917;-85
2021/04/23 01:42:36;;;;;;;9.07;2.95;;;;;;;21.70;18.41;98526.63;5036363;28;20037;-84
2021/04/23 01:45:05;;;;;;;8.50;2.78;;;;;;;21.39;19.05;98522.78;5036260;28;20057;-84
2021/04/23 01:47:32;;;;;;;7.47;2.35;;;;;;;21.08;19.14;98521.66;5035420;28;20040;-85
2021/04/23 01:49:58;;;;;;;6.00;2.05;;;;;;;21.24;19.16;98524.81;5038449;28;20064;-84
2021/04/23 01:52:24;;;;;;;8.88;3.00;;;;;;;20.77;19.52;98528.06;5048373;28;20082;-84
2021/04/23 01:54:51;;;;;;;9.27;2.90;;;;;;;21.19;19.27;98528.00;5050410;28;20029;-84
2021/04/23 01:57:18;;;;;;;8.30;2.65;;;;;;;22.16;18.48;98521.56;5052664;28;20079;-85
2021/04/23 01:59:47;;;;;;;11.75;4.05;;;;;;;22.55;17.89;98519.25;5043878;28;20076;-84
2021/04/23 02:02:14;;;;;;;6.15;2.83;;;;;;;22.43;18.12;98530.94;5043178;28;20037;-85
2021/04/23 02:04:41;;;;;;;6.90;2.40;;;;;;;22.88;17.65;98536.56;5043069;28;20041;-85
2021/04/23 02:07:09;;;;;;;6.28;2.63;;;;;;;22.12;18.47;98532.00;5051474;28;20474;-84
2021/04/23 02:09:36;;;;;;;6.85;2.65;;;;;;;22.14;18.55;98539.97;5039733;28;20021;-84
2021/04/23 02:12:03;;;;;;;11.77;3.28;;;;;;;22.06;18.77;98539.19;5035666;28;20494;-85
2021/04/23 02:14:29;;;;;;;10.73;3.67;;;;;;;22.12;18.89;98536.78;5036027;28;20071;-85
2021/04/23 02:16:56;;;;;;;4.90;2.58;;;;;;;21.51;19.62;98541.06;5040186;28;20029;-84
2021/04/23 02:19:23;;;;;;;8.85;3.33;;;;;;;22.08;19.05;98539.59;5038593;28;20033;-84
2021/04/23 02:21:50;;;;;;;12.02;3.40;;;;;;;21.88;19.31;98546.91;5049603;28;20061;-85
2021/04/23 02:24:17;;;;;;;12.40;3.53;;;;;;;21.22;20.05;98545.97;5039227;28;20041;-84
2021/04/23 02:26:45;;;;;;;7.32;3.00;;;;;;;20.33;21.20;98550.00;5070367;28;20040;-84
2021/04/23 02:29:17;;;;;;;8.07;3.28;;;;;;;21.18;20.45;98548.78;5048772;28;20040;-84
2021/04/23 02:31:48;;;;;;;11.30;3.13;;;;;;;21.75;19.95;98556.94;5042425;28;20398;-84
2021/04/23 02:34:16;;;;;;;12.35;4.35;;;;;;;20.20;21.66;98555.16;5036794;28;20391;-84
2021/04/23 02:36:42;;;;;;;8.60;3.17;;;;;;;21.63;20.13;98549.81;5035295;28;20041;-85
2021/04/23 02:39:12;;;;;;;13.02;3.08;;;;;;;22.17;19.50;98547.53;5041166;28;20037;-84
2021/04/23 02:41:39;;;;;;;5.90;2.72;;;;;;;22.34;19.09;98552.19;5042707;28;20021;-85
2021/04/23 02:44:06;;;;;;;6.88;2.55;;;;;;;23.17;18.46;98560.28;5051274;28;20487;-85
2021/04/23 02:46:35;;;;;;;8.55;3.20;;;;;;;23.19;18.37;98552.25;5050649;28;20395;-85
2021/04/23 02:49:01;;;;;;;7.70;2.55;;;;;;;23.93;17.71;98560.56;5049914;28;20064;-85
2021/04/23 02:51:31;;;;;;;9.57;2.83;;;;;;;23.82;17.69;98559.94;5038999;28;20483;-85
2021/04/23 02:53:59;;;;;;;7.32;3.00;;;;;;;23.56;17.94;98555.06;5041906;28;20044;-85
2021/04/23 02:56:26;;;;;;;5.70;2.35;;;;;;;23.67;17.77;98555.72;5040200;28;20120;-85
2021/04/23 02:58:54;;;;;;;7.82;2.55;;;;;;;23.91;17.46;98554.59;5045608;28;20116;-85
2021/04/23 03:01:25;;;;;;;7.82;2.53;;;;;;;23.53;17.65;98555.88;5045985;28;20116;-85
2021/04/23 03:03:51;;;;;;;;;;;;;;;23.48;17.79;98558.38;5045863;28;20045;-85
2021/04/23 03:06:17;;;;;;;5.25;2.10;;;;;;;23.80;17.30;98561.56;5035346;28;19928;-84
2021/04/23 03:08:43;;;;;;;10.13;3.13;;;;;;;23.74;17.41;98547.19;5034641;28;20037;-85
2021/04/23 03:11:17;;;;;;;7.57;2.22;;;;;;;23.87;17.31;98556.66;5044054;28;20176;-85
2021/04/23 03:13:47;;;;;;;7.00;2.75;;;;;;;24.02;17.17;98554.44;5034754;28;20386;-85
2021/04/23 03:16:14;;;;;;;6.20;2.80;;;;;;;23.09;18.02;98564.34;5050169;28;20029;-84
2021/04/23 03:18:42;;;;;;;5.63;2.65;;;;;;;23.33;18.12;98560.50;5043652;28;20051;-85
2021/04/23 03:21:10;;;;;;;7.53;2.88;;;;;;;23.08;18.20;98555.16;5033722;28;20475;-84
2021/04/23 03:23:37;;;;;;;11.63;4.57;;;;;;;23.52;17.85;98562.72;5039659;28;20029;-84
2021/04/23 03:26:05;;;;;;;13.40;4.22;;;;;;;23.23;18.19;98564.22;5040961;28;20029;-84
2021/04/23 03:28:32;;;;;;;8.45;3.63;;;;;;;23.08;18.44;98568.38;5038870;28;20060;-84
2021/04/23 03:30:59;;;;;;;9.43;3.17;;;;;;;23.00;18.45;98566.84;5041033;28;20029;-85
2021/04/23 03:33:25;;;;;;;8.73;3.25;;;;;;;23.56;18.09;98569.06;5041980;28;20033;-84
2021/04/23 03:35:54;;;;;;;11.25;4.78;;;;;;;23.57;17.99;98570.63;5036305;28;20041;-84
2021/04/23 03:41:43;;;;;;;11.73;3.60;;;;;;;23.78;17.74;98576.00;5041730;28;20490;-84
2021/04/23 03:44:10;;;;;;;8.35;3.53;;;;;;;23.86;17.91;98585.91;5035262;28;20060;-84
2021/04/23 03:46:36;;;;;;;11.57;4.40;;;;;;;24.12;17.49;98583.59;5061968;28;20034;-84
2021/04/23 03:49:03;;;;;;;11.63;5.63;;;;;;;24.00;17.75;98585.72;5035019;28;20100;-84
2021/04/23 03:51:30;;;;;;;10.30;3.92;;;;;;;24.03;17.68;98589.69;5050260;28;20033;-84
2021/04/23 03:53:56;;;;;;;8.32;3.20;;;;;;;24.03;17.71;98589.69;5051956;28;20025;-84
2021/04/23 03:56:24;;;;;;;10.05;3.88;;;;;;;24.52;17.22;98588.19;5046585;28;20403;-85
2021/04/23 03:58:52;;;;;;;8.52;3.03;;;;;;;24.92;16.85;98589.97;5033599;28;20049;-85
2021/04/23 04:01:21;;;;;;;8.82;3.67;;;;;;;25.21;16.64;98595.88;5044737;28;20360;-85
2021/04/23 04:03:50;;;;;;;10.65;4.38;;;;;;;25.22;16.43;98592.66;5045411;28;20033;-85
2021/04/23 04:06:16;;;;;;;10.88;3.45;;;;;;;25.35;16.39;98589.97;5046166;28;20129;-85
2021/04/23 04:08:42;;;;;;;9.10;3.88;;;;;;;25.64;15.87;98593.06;5053032;28;20037;-84
2021/04/23 04:11:09;;;;;;;10.77;3.90;;;;;;;25.21;16.29;98595.88;5046596;28;20045;-84
2021/04/23 04:13:36;;;;;;;8.98;3.35;;;;;;;25.08;16.47;98590.09;5047375;28;20115;-84
2021/04/23 04:16:02;;;;;;;8.48;4.53;;;;;;;24.89;16.40;98598.44;5047564;28;20021;-85
2021/04/23 04:18:29;;;;;;;6.40;3.33;;;;;;;24.39;17.03;98613.25;5043436;28;20076;-85
2021/04/23 04:21:07;;;;;;;10.52;4.15;;;;;;;23.91;17.68;98607.88;5049265;28;20060;-84
2021/04/23 04:23:33;;;;;;;10.05;4.43;;;;;;;24.28;17.27;98609.00;5044439;28;20875;-84
2021/04/23 04:26:02;;;;;;;12.55;4.45;;;;;;;23.85;17.72;98615.16;5044501;28;20503;-85
2021/04/23 04:28:30;;;;;;;10.35;3.92;;;;;;;23.95;17.67;98613.44;5039692;28;20044;-85
2021/04/23 04:30:57;;;;;;;9.55;4.32;;;;;;;24.44;17.09;98612.78;5043078;28;20039;-85
2021/04/23 04:33:23;;;;;;;11.88;4.00;;;;;;;24.65;16.86;98620.88;5049627;28;20068;-85
2021/04/23 04:35:51;;;;;;;7.47;3.65;;;;;;;24.85;16.80;98620.19;5039467;28;20121;-84
2021/04/23 04:38:17;;;;;;;9.35;4.30;;;;;;;24.82;17.25;98619.03;5040049;28;20120;-85
2021/04/23 04:40:47;;;;;;;10.48;3.78;;;;;;;25.16;17.21;98616.03;5047922;28;20041;-85
2021/04/23 04:43:15;;;;;;;7.57;3.03;;;;;;;25.40;17.01;98620.41;5044611;28;20040;-85
2021/04/23 04:45:42;;;;;;;9.95;3.70;;;;;;;25.29;17.17;98626.25;5050569;28;20032;-84
2021/04/23 04:48:10;;;;;;;6.13;3.03;;;;;;;25.26;17.27;98620.69;5039037;28;20041;-83
2021/04/23 04:50:43;;;;;;;7.07;3.05;;;;;;;25.82;16.81;98616.81;5041179;28;20041;-83
2021/04/23 04:53:10;;;;;;;10.52;2.83;;;;;;;26.39;16.59;98610.78;5040181;28;20029;-83
2021/04/23 04:55:39;;;;;;;7.20;2.67;;;;;;;26.89;16.38;98609.59;5039316;28;20033;-84
2021/04/23 04:58:07;;;;;;;8.52;2.63;;;;;;;26.47;16.55;98615.00;5043775;28;20033;-84
2021/04/23 05:00:34;;;;;;;5.47;2.60;;;;;;;26.69;16.70;98621.72;5037587;28;20103;-85
2021/04/23 05:03:00;;;;;;;4.97;2.40;;;;;;;27.15;16.33;98623.41;5048731;28;20033;-85
2021/04/23 05:05:27;;;;;;;7.07;2.45;;;;;;;27.01;16.11;98635.06;5052315;28;20060;-85
2021/04/23 05:07:54;;;;;;;7.10;2.10;;;;;;;26.36;16.99;98636.97;5038247;28;20042;-85
2021/04/23 05:10:20;;;;;;;5.22;2.53;;;;;;;25.42;17.89;98638.44;5051141;28;20477;-86
2021/04/23 05:12:46;;;;;;;7.80;2.25;;;;;;;25.19;17.93;98638.47;5040437;28;20025;-86
2021/04/23 05:15:14;;;;;;;4.00;2.22;;;;;;;24.37;18.87;98637.34;5047055;28;20044;-85
2021/04/23 05:17:40;;;;;;;7.25;2.38;;;;;;;22.78;20.54;98655.84;5044608;28;20390;-85
2021/04/23 05:20:08;;;;;;;7.53;2.88;;;;;;;22.55;21.06;98655.56;5044824;28;20048;-86
2021/04/23 05:22:37;;;;;;;8.00;3.33;;;;;;;20.82;23.11;98653.25;5035989;28;20030;-83
2021/04/23 05:25:06;;;;;;;7.35;2.60;;;;;;;21.83;22.02;98656.31;5043138;28;20465;-83
2021/04/23 05:27:32;;;;;;;6.60;2.70;;;;;;;21.30;23.21;98662.84;5046537;28;20033;-83
2021/04/23 05:29:58;;;;;;;6.22;2.47;;;;;;;22.34;21.93;98648.13;5045870;28;20524;-83
2021/04/23 05:32:25;;;;;;;6.25;2.88;;;;;;;23.01;20.94;98644.84;5040724;28;20072;-83
2021/04/23 05:34:51;;;;;;;7.95;3.03;;;;;;;22.96;20.78;98645.31;5052502;28;20040;-83
2021/04/23 05:37:17;;;;;;;4.28;2.38;;;;;;;22.79;21.59;98657.44;5053845;28;20052;-83
2021/04/23 05:39:44;;;;;;;6.72;3.05;;;;;;;21.46;22.44;98664.41;5047315;28;20061;-83
2021/04/23 05:42:11;;;;;;;6.28;2.58;;;;;;;21.60;22.91;98667.19;5057459;28;20394;-82
2021/04/23 05:44:37;;;;;;;8.73;3.92;;;;;;;22.55;21.26;98669.56;5044259;28;20080;-83
2021/04/23 05:47:07;;;;;;;6.65;2.75;;;;;;;22.27;21.57;98664.94;5040557;28;20029;-84
2021/04/23 05:49:34;;;;;;;4.40;2.30;;;;;;;22.27;21.40;98670.53;5047744;28;20037;-84
2021/04/23 05:52:02;;;;;;;5.30;2.17;;;;;;;22.84;21.39;98670.19;5053243;28;20090;-84
2021/04/23 05:54:29;;;;;;;9.48;4.40;;;;;;;22.26;21.39;98665.34;5052397;28;20033;-84
2021/04/23 05:56:55;;;;;;;8.48;3.38;;;;;;;21.50;22.33;98665.19;5048811;28;20040;-84
2021/04/23 05:59:21;;;;;;;10.65;3.35;;;;;;;21.56;23.01;98669.19;5047513;28;20049;-83
2021/04/23 06:01:48;;;;;;;7.53;2.85;;;;;;;21.53;22.54;98656.00;5053593;28;20037;-84
2021/04/23 06:04:15;;;;;;;8.25;4.05;;;;;;;20.92;23.49;98668.41;5052749;28;20036;-83
2021/04/23 06:06:41;;;;;;;7.63;3.03;;;;;;;22.32;21.68;98661.72;5052245;28;20334;-84
2021/04/23 06:09:08;;;;;;;6.32;3.72;;;;;;;21.69;22.56;98670.34;5050250;28;20060;-83
2021/04/23 06:11:35;;;;;;;5.13;2.83;;;;;;;21.15;23.29;98671.63;5049049;28;20021;-84
2021/04/23 06:14:02;;;;;;;4.32;2.20;;;;;;;22.59;22.00;98670.38;5051716;28;20040;-84
2021/04/23 06:16:28;;;;;;;7.75;3.60;;;;;;;20.83;23.84;98670.81;5052187;28;20116;-84
2021/04/23 06:18:54;;;;;;;5.80;3.47;;;;;;;20.20;24.10;98677.84;5052155;28;20039;-83
2021/04/23 06:21:21;;;;;;;10.85;4.90;;;;;;;20.86;23.46;98681.19;5052972;28;20048;-84
2021/04/23 06:23:47;;;;;;;6.25;2.22;;;;;;;20.85;23.74;98687.97;5051257;28;20044;-83
2021/04/23 06:26:13;;;;;;;4.78;2.67;;;;;;;22.20;22.02;98672.56;5054567;28;20040;-84
2021/04/23 06:28:39;;;;;;;4.75;2.55;;;;;;;22.75;20.88;98678.28;5053501;28;20021;-83
2021/04/23 06:31:07;;;;;;;6.72;3.20;;;;;;;23.79;20.17;98678.53;5053667;28;20053;-84
2021/04/23 06:33:37;;;;;;;6.90;3.35;;;;;;;23.20;20.70;98677.09;5054019;28;20449;-84
2021/04/23 06:36:04;;;;;;;8.63;3.45;;;;;;;22.71;21.28;98685.91;5049168;28;20021;-84
2021/04/23 06:38:31;;;;;;;5.90;2.90;;;;;;;22.90;21.14;98685.34;5040755;28;20563;-83
2021/04/23 06:40:58;;;;;;;6.97;2.83;;;;;;;22.76;21.42;98691.03;5044479;28;20045;-84
2021/04/23 06:43:24;;;;;;;4.40;2.80;;;;;;;23.23;20.74;98684.69;5053290;28;20043;-84
2021/04/23 06:45:51;;;;;;;7.15;3.25;;;;;;;22.91;20.72;98687.75;5050933;28;20040;-82
2021/04/23 06:48:18;;;;;;;5.93;3.38;;;;;;;23.60;20.45;98692.34;5039279;28;20025;-82
2021/04/23 06:50:45;;;;;;;6.45;3.20;;;;;;;23.27;20.70;98694.66;5048035;28;20043;-83
2021/04/23 06:53:11;;;;;;;9.40;3.95;;;;;;;21.42;22.85;98700.75;5051532;28;20080;-83
2021/04/23 06:55:38;;;;;;;6.63;3.40;;;;;;;20.70;23.55;98715.03;5047538;28;20029;-82
2021/04/23 06:58:05;;;;;;;7.32;3.42;;;;;;;21.11;23.52;98705.16;5052973;28;20048;-83
2021/04/23 07:00:33;;;;;;;9.88;3.40;;;;;;;22.59;21.62;98704.72;5049230;28;20033;-83
2021/04/23 07:03:01;;;;;;;7.05;3.53;;;;;;;22.97;21.35;98699.28;5051597;28;20032;-83
2021/04/23 07:05:28;;;;;;;6.55;3.45;;;;;;;22.76;21.45;98707.84;5051766;28;20043;-84
2021/04/23 07:07:54;;;;;;;6.47;2.92;;;;;;;23.96;20.50;98704.78;5048031;28;20028;-83
2021/04/23 07:10:24;;;;;;;7.30;4.38;;;;;;;23.60;20.68;98695.97;5044770;28;20140;-83
2021/04/23 07:12:51;;;;;;;7.97;4.00;;;;;;;23.60;20.68;98701.56;5044992;28;20039;-84
2021/04/23 07:15:20;;;;;;;8.80;4.15;;;;;;;22.80;21.38;98708.63;5049484;28;20413;-83
2021/04/23 07:17:47;;;;;;;8.60;4.70;;;;;;;21.27;23.51;98704.75;5040752;28;20111;-83
2021/04/23 07:20:15;;;;;;;10.13;4.30;;;;;;;22.62;22.14;98705.94;5049564;28;20100;-85
2021/04/23 07:22:42;;;;;;;7.72;4.53;;;;;;;23.38;20.97;98714.22;5045126;28;20112;-85
2021/04/23 07:25:09;;;;;;;10.15;4.55;;;;;;;22.72;21.92;98712.69;5048499;28;20439;-84
2021/04/23 07:27:36;;;;;;;12.45;4.85;;;;;;;22.38;22.42;98718.06;5045802;28;20041;-85
2021/04/23 07:30:30;;;;;;;8.02;4.43;;;;;;;22.97;22.11;98716.91;5048836;28;20467;-85
2021/04/23 07:32:57;;;;;;;8.45;4.70;;;;;;;23.40;21.10;98713.78;5031991;28;20049;-85
2021/04/23 07:35:25;;;;;;;11.07;5.03;;;;;;;22.49;22.63;98711.19;5041553;28;20047;-85
2021/04/23 07:37:51;;;;;;;9.15;4.45;;;;;;;23.04;22.51;98711.25;5047847;28;20052;-85
2021/04/23 07:40:19;;;;;;;10.38;4.53;;;;;;;23.69;22.50;98707.47;5038095;28;20041;-85
2021/04/23 07:42:46;;;;;;;15.05;5.85;;;;;;;24.35;20.79;98721.16;5046304;28;20372;-85
2021/04/23 07:45:14;;;;;;;10.43;4.72;;;;;;;24.36;20.88;98717.16;5044472;28;20094;-85
2021/04/23 07:47:42;;;;;;;7.80;3.63;;;;;;;24.51;22.13;98705.31;5044625;28;20482;-86
2021/04/23 07:50:10;;;;;;;9.43;4.78;;;;;;;23.91;21.39;98711.66;5051649;28;20032;-85
2021/04/23 07:52:36;;;;;;;10.07;4.97;;;;;;;22.67;23.59;98728.72;5050096;28;20044;-85
2021/04/23 07:55:04;;;;;;;10.20;5.43;;;;;;;22.34;23.49;98718.06;5051320;28;20025;-85
2021/04/23 07:57:33;;;;;;;9.05;5.10;;;;;;;21.71;24.06;98709.84;5043046;28;20505;-85
2021/04/23 07:59:59;;;;;;;16.13;5.97;;;;;;;20.84;24.77;98712.28;5046333;28;20044;-85
2021/04/23 08:02:26;;;;;;;11.85;4.85;;;;;;;22.18;22.98;98695.34;5038036;28;20033;-85
2021/04/23 08:04:52;;;;;;;6.53;3.90;;;;;;;24.22;20.59;98703.31;5042096;28;20494;-85
2021/04/23 08:07:18;;;;;;;9.15;4.40;;;;;;;24.32;20.48;98705.97;5037365;28;20033;-85
2021/04/23 08:09:44;;;;;;;8.98;3.67;;;;;;;25.45;20.34;98712.72;5044195;28;20052;-86
2021/04/23 08:12:12;;;;;;;13.10;4.65;;;;;;;24.84;20.21;98714.91;5036061;28;20522;-85
2021/04/23 08:14:38;;;;;;;5.30;3.20;;;;;;;24.78;21.28;98719.41;5037301;28;20636;-85
2021/04/23 08:17:05;;;;;;;4.45;2.80;;;;;;;25.64;19.72;98711.19;5043228;28;20075;-85
2021/04/23 08:19:31;;;;;;;6.22;3.40;;;;;;;25.01;19.69;98713.84;5040868;28;20040;-85
2021/04/23 08:21:57;;;;;;;9.85;3.58;;;;;;;24.89;19.22;98708.81;5040324;28;20035;-85
2021/04/23 08:24:23;;;;;;;5.82;2.80;;;;;;;24.67;19.76;98715.91;5039408;28;20112;-85
2021/04/23 08:26:49;;;;;;;5.25;2.70;;;;;;;24.18;20.19;98716.59;5038734;28;20033;-85
2021/04/23 08:29:16;;;;;;;4.03;2.60;;;;;;;24.52;19.77;98718.16;5035458;28;20041;-85
2021/04/23 08:31:43;;;;;;;4.40;2.50;;;;;;;24.16;20.49;98714.19;5036841;28;20113;-85
2021/04/23 08:34:10;;;;;;;6.47;4.07;;;;;;;22.03;22.73;98721.81;5035369;28;20032;-84
2021/04/23 08:36:37;;;;;;;6.60;4.10;;;;;;;19.85;25.65;98736.22;5034816;28;20064;-84
2021/04/23 08:39:08;;;;;;;7.57;4.55;;;;;;;20.53;25.07;98732.56;5036681;28;20029;-84
2021/04/23 08:41:36;;;;;;;8.48;4.43;;;;;;;19.85;25.21;98737.03;5037975;28;20043;-85
2021/04/23 08:44:03;;;;;;;8.07;4.15;;;;;;;20.84;25.01;98739.41;5035557;28;20033;-84
2021/04/23 08:46:29;;;;;;;5.18;3.65;;;;;;;22.92;22.53;98731.34;5033261;28;20053;-85
2021/04/23 08:48:56;;;;;;;4.55;3.53;;;;;;;23.38;21.51;98734.59;5044125;28;20068;-84
2021/04/23 08:51:23;;;;;;;4.45;3.65;;;;;;;22.24;23.28;98744.06;5039831;28;20056;-84
2021/04/23 08:53:53;;;;;;;9.45;4.05;;;;;;;20.51;24.46;98746.88;5032454;28;20061;-86
2021/04/23 08:56:20;;;;;;;7.25;3.95;;;;;;;20.62;24.26;98753.31;5038661;28;20034;-86
2021/04/23 08:58:47;;;;;;;7.07;2.92;;;;;;;21.83;22.84;98735.41;5038050;28;20041;-85
2021/04/23 09:01:15;;;;;;;4.22;2.65;;;;;;;23.70;21.23;98733.50;5041891;28;20104;-85
2021/04/23 09:03:42;;;;;;;3.55;2.53;;;;;;;24.68;20.27;98725.94;5046210;28;20073;-85
2021/04/23 09:06:08;;;;;;;4.20;2.35;;;;;;;25.36;19.73;98738.56;5040065;28;20596;-85
2021/04/23 09:08:55;;;;;;;4.72;2.90;;;;;;;26.38;19.82;98727.44;5049271;28;20108;-85
2021/04/23 09:11:27;;;;;;;5.85;3.22;;;;;;;27.11;19.23;98723.41;5046414;28;20036;-85
2021/04/23 09:14:01;;;;;;;4.43;2.70;;;;;;;27.48;18.86;98722.13;5045152;28;20036;-86
2021/04/23 09:16:46;;;;;;;4.97;2.97;;;;;;;27.53;18.68;98721.59;5044259;28;20032;-85
2021/04/23 09:19:26;;;;;;;3.70;2.28;;;;;;;27.58;18.66;98719.03;5044696;28;20024;-85
2021/04/23 09:22:00;;;;;;;2.88;2.50;;;;;;;27.83;18.23;98709.88;5050422;28;20044;-85
2021/04/23 09:24:38;;;;;;;4.68;2.80;;;;;;;27.96;17.79;98716.38;5049246;28;20037;-85
2021/04/23 09:27:16;;;;;;;5.43;3.53;;;;;;;27.73;17.76;98720.22;5043513;28;20029;-86
2021/04/23 09:29:45;;;;;;;6.82;2.88;;;;;;;27.43;17.89;98720.63;5044760;28;20029;-85
2021/04/23 09:32:23;;;;;;;5.07;3.58;;;;;;;27.09;18.57;98715.41;5042855;28;20041;-85
2021/04/23 09:35:00;;;;;;;5.97;3.33;;;;;;;25.95;19.74;98701.38;5042156;28;20029;-86
2021/04/23 09:37:39;;;;;;;6.95;4.35;;;;;;;25.65;19.95;98702.31;5046283;28;20041;-86
2021/04/23 09:40:10;;;;;;;4.85;3.25;;;;;;;26.33;20.26;98699.78;5045245;28;20032;-86
2021/04/23 09:42:43;;;;;;;7.50;3.75;;;;;;;26.95;19.61;98700.84;5043177;28;20087;-86
2021/04/23 09:45:10;;;;;;;6.13;3.63;;;;;;;27.35;18.30;98702.28;5042572;28;20041;-86
2021/04/23 09:47:36;;;;;;;5.80;3.38;;;;;;;26.36;19.65;98698.94;5046493;28;20022;-86
2021/04/23 09:50:06;;;;;;;5.38;3.17;;;;;;;26.99;18.21;98696.72;5048138;28;20048;-86
2021/04/23 09:52:32;;;;;;;3.97;2.70;;;;;;;27.78;18.07;98696.31;5042083;28;20573;-86
2021/04/23 09:55:03;;;;;;;6.47;2.40;;;;;;;28.39;17.66;98682.09;5043196;28;20033;-86
2021/04/23 09:57:36;;;;;;;;;;;;;;;28.65;16.97;98683.75;5043546;28;20030;-86
2021/04/23 10:00:09;;;;;;;4.45;2.75;;;;;;;28.87;16.95;98679.00;5039043;28;19927;-86
2021/04/23 10:02:36;;;;;;;4.70;2.30;;;;;;;29.35;17.09;98686.34;5030882;28;20044;-85
2021/04/23 10:05:03;;;;;;;6.45;2.22;;;;;;;29.52;17.61;98681.31;5046363;28;20148;-85
2021/04/23 10:07:32;;;;;;;4.30;2.10;;;;;;;29.84;17.53;98684.63;5046941;28;20036;-84
2021/04/23 10:10:13;;;;;;;2.88;2.15;;;;;;;30.12;17.40;98674.31;5048324;28;20040;-85
2021/04/23 10:12:49;;;;;;;3.95;2.22;;;;;;;30.23;17.00;98666.19;5042613;28;20025;-85
2021/04/23 10:15:30;;;;;;;3.58;2.13;;;;;;;30.47;17.54;98656.00;5045931;28;20115;-84
2021/04/23 10:17:59;;;;;;;2.30;2.10;;;;;;;30.51;16.11;98664.34;5043626;28;20036;-84
2021/04/23 10:20:27;;;;;;;3.22;1.95;;;;;;;30.63;16.04;98660.63;5046690;28;20459;-84
2021/04/23 10:22:55;;;;;;;3.75;2.72;;;;;;;30.18;15.51;98660.34;5042632;28;20367;-84
2021/04/23 10:25:22;;;;;;;4.82;2.03;;;;;;;30.21;16.51;98654.53;5042136;28;20051;-85
2021/04/23 10:27:51;;;;;;;3.72;2.15;;;;;;;30.36;17.47;98664.13;5044185;28;20108;-84
2021/04/23 10:30:23;;;;;;;5.05;2.50;;;;;;;30.04;15.84;98662.44;5047242;28;20025;-84
2021/04/23 10:32:51;;;;;;;5.50;4.43;;;;;;;26.76;17.48;98688.41;5041336;28;20025;-84
2021/04/23 10:35:19;;;;;;;4.80;3.58;;;;;;;22.05;23.29;98696.22;5049156;28;20507;-84
2021/04/23 10:37:46;;;;;;;6.32;4.10;;;;;;;19.62;26.96;98741.25;5048754;28;20095;-85
2021/04/23 10:40:14;;;;;;;7.97;3.10;;;;;;;18.30;30.02;98745.91;5044509;28;20049;-85
2021/04/23 10:42:47;;;;;;;5.38;3.25;;;;;;;17.51;31.36;98748.00;5043438;28;20033;-85
2021/04/23 10:45:23;;;;;;;9.45;2.28;;;;;;;17.79;30.97;98745.66;5042979;28;20068;-85
2021/04/23 10:47:52;;;;;;;3.70;2.40;;;;;;;19.15;28.52;98737.31;5049318;28;20032;-86
2021/04/23 10:50:36;;;;;;;2.35;2.05;;;;;;;21.42;25.83;98722.28;5048083;28;20033;-86
2021/04/23 10:53:15;;;;;;;1.33;1.23;;;;;;;24.17;22.92;98718.59;5045266;28;20078;-86
2021/04/23 10:55:49;;;;;;;2.35;1.92;;;;;;;24.16;22.18;98722.59;5042144;28;20063;-85
2021/04/23 10:58:33;;;;;;;1.98;1.25;;;;;;;24.37;23.26;98722.34;5044724;28;20093;-85
2021/04/23 11:01:03;;;;;;;2.67;1.90;;;;;;;24.04;21.91;98709.09;5040881;28;20383;-85
2021/04/23 11:03:37;;;;;;;2.22;1.88;;;;;;;24.10;22.55;98715.06;5054950;28;20891;-85
2021/04/23 11:06:25;;;;;;;3.17;2.45;;;;;;;25.65;21.48;98709.97;5041718;28;20035;-85
2021/04/23 11:09:01;;;;;;;1.85;1.67;;;;;;;26.36;20.15;98706.56;5040591;28;20041;-85
2021/04/23 11:11:28;;;;;;;1.85;1.42;;;;;;;26.64;19.86;98703.13;5044415;28;20367;-85
2021/04/23 11:13:55;;;;;;;2.88;2.05;;;;;;;26.53;20.08;98708.22;5040592;28;20033;-85
2021/04/23 11:16:24;;;;;;;2.45;1.45;;;;;;;28.00;20.07;98705.81;5048251;28;20029;-86
2021/04/23 11:19:10;;;;;;;2.53;1.88;;;;;;;28.68;18.03;98694.94;5042638;28;20040;-85
2021/04/23 11:21:38;;;;;;;2.67;1.70;;;;;;;28.79;18.15;98694.63;5061399;28;20391;-86
2021/04/23 11:24:10;;;;;;;2.58;1.20;;;;;;;28.59;17.99;98694.03;5039282;28;20065;-85
2021/04/23 11:26:55;;;;;;;2.55;1.70;;;;;;;27.81;18.77;98689.78;5037578;28;20061;-85
2021/04/23 11:29:26;;;;;;;3.67;1.70;;;;;;;27.93;19.18;98694.69;5045995;28;20395;-85
2021/04/23 11:32:24;;;;;;;2.78;1.80;;;;;;;28.04;18.86;98693.19;5045658;28;20057;-86
2021/04/23 11:35:15;;;;;;;2.97;2.40;;;;;;;25.92;20.07;98713.47;5038717;28;20403;-85
2021/04/23 11:37:41;;;;;;;6.60;3.67;;;;;;;20.66;25.38;98728.19;5046480;28;20487;-85
2021/04/23 11:40:18;;;;;;;3.55;1.90;;;;;;;21.83;24.56;98717.81;5043796;28;20123;-85
2021/04/23 11:42:46;;;;;;;3.63;2.70;;;;;;;21.89;24.29;98716.25;5042127;28;20026;-85